sensor_id;sensor_type;location;lat;lon;timestamp;P1;durP1;ratioP1;P2;durP2;ratioP2
9722;SDS011;4900;49.306;8.500;2022-08-20T00:02:21;3.65;;;3.10;;
9722;SDS011;4900;49.306;8.500;2022-08-20T00:05:30;3.30;;;2.90;;
9722;SDS011;4900;49.306;8.500;2022-08-20T00:08:36;3.08;;;2.78;;
9722;SDS011;4900;49.306;8.500;2022-08-20T00:11:40;3.35;;;2.63;;
9722;SDS011;4900;49.306;8.500;2022-08-20T00:14:43;2.75;;;2.55;;
9722;SDS011;4900;49.306;8.500;2022-08-20T00:17:47;3.30;;;2.97;;
9722;SDS011;4900;49.306;8.500;2022-08-20T00:20:52;3.95;;;3.10;;
9722;SDS011;4900;49.306;8.500;2022-08-20T00:23:57;4.15;;;3.40;;
9722;SDS011;4900;49.306;8.500;2022-08-20T00:27:00;4.45;;;3.35;;
9722;SDS011;4900;49.306;8.500;2022-08-20T00:30:06;4.28;;;3.70;;
9722;SDS011;4900;49.306;8.500;2022-08-20T00:33:14;3.63;;;3.28;;
9722;SDS011;4900;49.306;8.500;2022-08-20T00:36:20;3.85;;;3.55;;
9722;SDS011;4900;49.306;8.500;2022-08-20T00:39:24;3.75;;;3.45;;
9722;SDS011;4900;49.306;8.500;2022-08-20T00:42:27;4.03;;;3.45;;
9722;SDS011;4900;49.306;8.500;2022-08-20T00:45:31;4.72;;;3.50;;
9722;SDS011;4900;49.306;8.500;2022-08-20T00:48:37;3.50;;;3.20;;
9722;SDS011;4900;49.306;8.500;2022-08-20T00:51:47;3.78;;;3.13;;
9722;SDS011;4900;49.306;8.500;2022-08-20T00:54:56;3.58;;;3.28;;
9722;SDS011;4900;49.306;8.500;2022-08-20T00:58:03;4.25;;;3.05;;
9722;SDS011;4900;49.306;8.500;2022-08-20T01:01:11;4.25;;;3.30;;
9722;SDS011;4900;49.306;8.500;2022-08-20T01:04:17;3.75;;;3.03;;
9722;SDS011;4900;49.306;8.500;2022-08-20T01:07:21;3.55;;;2.95;;
9722;SDS011;4900;49.306;8.500;2022-08-20T01:10:35;4.40;;;3.30;;
9722;SDS011;4900;49.306;8.500;2022-08-20T01:13:40;3.70;;;3.40;;
9722;SDS011;4900;49.306;8.500;2022-08-20T01:16:45;3.20;;;2.90;;
9722;SDS011;4900;49.306;8.500;2022-08-20T01:19:56;3.08;;;2.78;;
9722;SDS011;4900;49.306;8.500;2022-08-20T01:23:32;3.10;;;2.80;;
9722;SDS011;4900;49.306;8.500;2022-08-20T01:26:42;3.00;;;2.70;;
9722;SDS011;4900;49.306;8.500;2022-08-20T01:29:48;3.40;;;2.92;;
9722;SDS011;4900;49.306;8.500;2022-08-20T01:32:51;3.03;;;2.60;;
9722;SDS011;4900;49.306;8.500;2022-08-20T01:35:54;4.30;;;2.58;;
9722;SDS011;4900;49.306;8.500;2022-08-20T01:38:59;3.60;;;2.97;;
9722;SDS011;4900;49.306;8.500;2022-08-20T01:42:05;2.95;;;2.65;;
9722;SDS011;4900;49.306;8.500;2022-08-20T01:45:35;2.65;;;2.40;;
9722;SDS011;4900;49.306;8.500;2022-08-20T01:48:38;2.95;;;2.65;;
9722;SDS011;4900;49.306;8.500;2022-08-20T01:51:43;2.67;;;2.47;;
9722;SDS011;4900;49.306;8.500;2022-08-20T01:54:46;5.18;;;2.88;;
9722;SDS011;4900;49.306;8.500;2022-08-20T01:57:50;3.08;;;2.40;;
9722;SDS011;4900;49.306;8.500;2022-08-20T02:00:53;3.97;;;2.53;;
9722;SDS011;4900;49.306;8.500;2022-08-20T02:03:56;4.18;;;2.20;;
9722;SDS011;4900;49.306;8.500;2022-08-20T02:07:01;4.10;;;2.65;;
9722;SDS011;4900;49.306;8.500;2022-08-20T02:10:07;2.92;;;2.63;;
9722;SDS011;4900;49.306;8.500;2022-08-20T02:13:12;3.25;;;2.50;;
9722;SDS011;4900;49.306;8.500;2022-08-20T02:16:15;2.80;;;2.50;;
9722;SDS011;4900;49.306;8.500;2022-08-20T02:19:20;3.00;;;2.63;;
9722;SDS011;4900;49.306;8.500;2022-08-20T02:22:47;2.97;;;2.42;;
9722;SDS011;4900;49.306;8.500;2022-08-20T02:26:00;3.15;;;2.40;;
9722;SDS011;4900;49.306;8.500;2022-08-20T02:29:08;3.58;;;2.40;;
9722;SDS011;4900;49.306;8.500;2022-08-20T02:32:12;3.10;;;2.40;;
9722;SDS011;4900;49.306;8.500;2022-08-20T02:35:15;3.35;;;2.67;;
9722;SDS011;4900;49.306;8.500;2022-08-20T02:38:20;2.90;;;2.60;;
9722;SDS011;4900;49.306;8.500;2022-08-20T02:41:23;3.13;;;2.20;;
9722;SDS011;4900;49.306;8.500;2022-08-20T02:44:27;2.65;;;2.20;;
9722;SDS011;4900;49.306;8.500;2022-08-20T02:47:30;4.55;;;2.47;;
9722;SDS011;4900;49.306;8.500;2022-08-20T02:50:33;2.55;;;2.30;;
9722;SDS011;4900;49.306;8.500;2022-08-20T02:53:37;2.60;;;2.40;;
9722;SDS011;4900;49.306;8.500;2022-08-20T02:56:43;2.70;;;2.45;;
9722;SDS011;4900;49.306;8.500;2022-08-20T02:59:46;3.20;;;2.45;;
9722;SDS011;4900;49.306;8.500;2022-08-20T03:02:51;2.75;;;2.50;;
9722;SDS011;4900;49.306;8.500;2022-08-20T03:05:55;2.83;;;2.30;;
9722;SDS011;4900;49.306;8.500;2022-08-20T03:09:00;2.33;;;2.13;;
9722;SDS011;4900;49.306;8.500;2022-08-20T03:12:04;2.78;;;2.35;;
9722;SDS011;4900;49.306;8.500;2022-08-20T03:15:08;2.83;;;2.30;;
9722;SDS011;4900;49.306;8.500;2022-08-20T03:18:13;3.17;;;2.20;;
9722;SDS011;4900;49.306;8.500;2022-08-20T03:21:17;2.90;;;2.30;;
9722;SDS011;4900;49.306;8.500;2022-08-20T03:24:20;2.50;;;2.25;;
9722;SDS011;4900;49.306;8.500;2022-08-20T03:27:23;3.40;;;2.15;;
9722;SDS011;4900;49.306;8.500;2022-08-20T03:30:27;3.13;;;2.30;;
9722;SDS011;4900;49.306;8.500;2022-08-20T03:33:31;2.30;;;2.10;;
9722;SDS011;4900;49.306;8.500;2022-08-20T03:36:35;2.70;;;2.10;;
9722;SDS011;4900;49.306;8.500;2022-08-20T03:39:38;2.65;;;2.00;;
9722;SDS011;4900;49.306;8.500;2022-08-20T03:42:42;2.80;;;2.10;;
9722;SDS011;4900;49.306;8.500;2022-08-20T03:45:45;2.20;;;2.00;;
9722;SDS011;4900;49.306;8.500;2022-08-20T03:48:50;2.15;;;1.92;;
9722;SDS011;4900;49.306;8.500;2022-08-20T03:51:53;2.10;;;1.90;;
9722;SDS011;4900;49.306;8.500;2022-08-20T03:54:56;2.60;;;2.10;;
9722;SDS011;4900;49.306;8.500;2022-08-20T03:58:01;2.63;;;2.30;;
9722;SDS011;4900;49.306;8.500;2022-08-20T04:01:07;2.35;;;2.08;;
9722;SDS011;4900;49.306;8.500;2022-08-20T04:04:11;2.30;;;2.10;;
9722;SDS011;4900;49.306;8.500;2022-08-20T04:07:16;2.25;;;2.05;;
9722;SDS011;4900;49.306;8.500;2022-08-20T04:10:27;2.92;;;1.98;;
9722;SDS011;4900;49.306;8.500;2022-08-20T04:13:31;4.45;;;2.10;;
9722;SDS011;4900;49.306;8.500;2022-08-20T04:16:35;2.38;;;2.17;;
9722;SDS011;4900;49.306;8.500;2022-08-20T04:19:40;3.38;;;2.33;;
9722;SDS011;4900;49.306;8.500;2022-08-20T04:22:43;3.15;;;2.20;;
9722;SDS011;4900;49.306;8.500;2022-08-20T04:25:49;3.05;;;2.00;;
9722;SDS011;4900;49.306;8.500;2022-08-20T04:28:52;3.22;;;2.50;;
9722;SDS011;4900;49.306;8.500;2022-08-20T04:31:57;2.60;;;2.40;;
9722;SDS011;4900;49.306;8.500;2022-08-20T04:35:05;2.50;;;2.28;;
9722;SDS011;4900;49.306;8.500;2022-08-20T04:38:13;2.65;;;2.30;;
9722;SDS011;4900;49.306;8.500;2022-08-20T04:41:18;3.40;;;2.50;;
9722;SDS011;4900;49.306;8.500;2022-08-20T04:44:23;3.38;;;2.30;;
9722;SDS011;4900;49.306;8.500;2022-08-20T04:47:26;3.38;;;2.28;;
9722;SDS011;4900;49.306;8.500;2022-08-20T04:50:29;2.58;;;2.35;;
9722;SDS011;4900;49.306;8.500;2022-08-20T04:53:36;2.60;;;2.40;;
9722;SDS011;4900;49.306;8.500;2022-08-20T04:56:41;2.50;;;2.30;;
9722;SDS011;4900;49.306;8.500;2022-08-20T05:00:05;2.55;;;2.33;;
9722;SDS011;4900;49.306;8.500;2022-08-20T05:03:15;2.92;;;2.30;;
9722;SDS011;4900;49.306;8.500;2022-08-20T05:06:20;2.75;;;2.22;;
9722;SDS011;4900;49.306;8.500;2022-08-20T05:09:26;2.63;;;2.33;;
9722;SDS011;4900;49.306;8.500;2022-08-20T05:12:30;2.50;;;2.30;;
9722;SDS011;4900;49.306;8.500;2022-08-20T05:15:33;2.88;;;2.55;;
9722;SDS011;4900;49.306;8.500;2022-08-20T05:18:37;2.90;;;2.60;;
9722;SDS011;4900;49.306;8.500;2022-08-20T05:21:41;3.28;;;2.95;;
9722;SDS011;4900;49.306;8.500;2022-08-20T05:24:45;4.93;;;3.10;;
9722;SDS011;4900;49.306;8.500;2022-08-20T05:27:48;4.55;;;3.60;;
9722;SDS011;4900;49.306;8.500;2022-08-20T05:30:52;6.95;;;3.63;;
9722;SDS011;4900;49.306;8.500;2022-08-20T05:33:55;4.80;;;3.15;;
9722;SDS011;4900;49.306;8.500;2022-08-20T05:36:59;4.03;;;3.55;;
9722;SDS011;4900;49.306;8.500;2022-08-20T05:40:09;4.20;;;3.80;;
9722;SDS011;4900;49.306;8.500;2022-08-20T05:43:15;5.15;;;3.40;;
9722;SDS011;4900;49.306;8.500;2022-08-20T05:46:20;3.63;;;3.15;;
9722;SDS011;4900;49.306;8.500;2022-08-20T05:49:24;4.30;;;3.20;;
9722;SDS011;4900;49.306;8.500;2022-08-20T05:52:28;3.83;;;3.33;;
9722;SDS011;4900;49.306;8.500;2022-08-20T05:55:32;3.85;;;3.55;;
9722;SDS011;4900;49.306;8.500;2022-08-20T05:58:35;3.53;;;2.90;;
9722;SDS011;4900;49.306;8.500;2022-08-20T06:01:39;4.30;;;3.40;;
9722;SDS011;4900;49.306;8.500;2022-08-20T06:04:44;4.47;;;3.30;;
9722;SDS011;4900;49.306;8.500;2022-08-20T06:07:47;3.47;;;2.90;;
9722;SDS011;4900;49.306;8.500;2022-08-20T06:10:52;5.95;;;3.40;;
9722;SDS011;4900;49.306;8.500;2022-08-20T06:13:55;7.05;;;3.42;;
9722;SDS011;4900;49.306;8.500;2022-08-20T06:17:03;4.85;;;3.50;;
9722;SDS011;4900;49.306;8.500;2022-08-20T06:20:08;3.97;;;3.30;;
9722;SDS011;4900;49.306;8.500;2022-08-20T06:23:12;3.78;;;3.00;;
9722;SDS011;4900;49.306;8.500;2022-08-20T06:26:15;3.83;;;3.45;;
9722;SDS011;4900;49.306;8.500;2022-08-20T06:29:18;3.20;;;2.90;;
9722;SDS011;4900;49.306;8.500;2022-08-20T06:32:22;3.78;;;3.40;;
9722;SDS011;4900;49.306;8.500;2022-08-20T06:35:26;3.72;;;3.03;;
9722;SDS011;4900;49.306;8.500;2022-08-20T06:38:29;3.60;;;3.30;;
9722;SDS011;4900;49.306;8.500;2022-08-20T06:41:34;3.63;;;2.83;;
9722;SDS011;4900;49.306;8.500;2022-08-20T06:44:37;3.58;;;3.28;;
9722;SDS011;4900;49.306;8.500;2022-08-20T06:47:41;3.30;;;2.95;;
9722;SDS011;4900;49.306;8.500;2022-08-20T06:50:46;3.35;;;3.05;;
9722;SDS011;4900;49.306;8.500;2022-08-20T06:53:49;4.82;;;3.40;;
9722;SDS011;4900;49.306;8.500;2022-08-20T06:56:52;4.22;;;2.97;;
9722;SDS011;4900;49.306;8.500;2022-08-20T06:59:55;4.88;;;3.17;;
9722;SDS011;4900;49.306;8.500;2022-08-20T07:03:00;4.97;;;3.00;;
9722;SDS011;4900;49.306;8.500;2022-08-20T07:06:04;5.28;;;3.67;;
9722;SDS011;4900;49.306;8.500;2022-08-20T07:09:07;3.85;;;3.40;;
9722;SDS011;4900;49.306;8.500;2022-08-20T07:12:12;3.22;;;2.95;;
9722;SDS011;4900;49.306;8.500;2022-08-20T07:15:15;3.92;;;2.90;;
9722;SDS011;4900;49.306;8.500;2022-08-20T07:18:21;3.17;;;2.85;;
9722;SDS011;4900;49.306;8.500;2022-08-20T07:21:25;4.80;;;3.30;;
9722;SDS011;4900;49.306;8.500;2022-08-20T07:24:29;3.40;;;3.10;;
9722;SDS011;4900;49.306;8.500;2022-08-20T07:27:32;2.90;;;2.60;;
9722;SDS011;4900;49.306;8.500;2022-08-20T07:30:35;3.30;;;2.95;;
9722;SDS011;4900;49.306;8.500;2022-08-20T07:33:58;4.60;;;3.25;;
9722;SDS011;4900;49.306;8.500;2022-08-20T07:37:01;5.75;;;3.00;;
9722;SDS011;4900;49.306;8.500;2022-08-20T07:40:05;4.25;;;3.05;;
9722;SDS011;4900;49.306;8.500;2022-08-20T07:43:10;3.20;;;2.90;;
9722;SDS011;4900;49.306;8.500;2022-08-20T07:46:15;3.15;;;2.75;;
9722;SDS011;4900;49.306;8.500;2022-08-20T07:49:20;3.22;;;2.92;;
9722;SDS011;4900;49.306;8.500;2022-08-20T07:52:23;3.00;;;2.70;;
9722;SDS011;4900;49.306;8.500;2022-08-20T07:55:27;2.90;;;2.60;;
9722;SDS011;4900;49.306;8.500;2022-08-20T07:58:30;2.80;;;2.55;;
9722;SDS011;4900;49.306;8.500;2022-08-20T08:01:33;3.53;;;2.70;;
9722;SDS011;4900;49.306;8.500;2022-08-20T08:04:37;2.92;;;2.25;;
9722;SDS011;4900;49.306;8.500;2022-08-20T08:07:40;2.67;;;2.30;;
9722;SDS011;4900;49.306;8.500;2022-08-20T08:10:45;2.70;;;2.50;;
9722;SDS011;4900;49.306;8.500;2022-08-20T08:13:50;3.00;;;2.75;;
9722;SDS011;4900;49.306;8.500;2022-08-20T08:16:54;2.75;;;2.47;;
9722;SDS011;4900;49.306;8.500;2022-08-20T08:19:59;2.95;;;2.75;;
9722;SDS011;4900;49.306;8.500;2022-08-20T08:23:03;2.75;;;2.55;;
9722;SDS011;4900;49.306;8.500;2022-08-20T08:26:06;3.17;;;2.70;;
9722;SDS011;4900;49.306;8.500;2022-08-20T08:29:09;2.60;;;2.40;;
9722;SDS011;4900;49.306;8.500;2022-08-20T08:32:13;2.60;;;2.40;;
9722;SDS011;4900;49.306;8.500;2022-08-20T08:35:17;2.50;;;2.03;;
9722;SDS011;4900;49.306;8.500;2022-08-20T08:38:19;3.13;;;2.50;;
9722;SDS011;4900;49.306;8.500;2022-08-20T08:41:35;2.75;;;2.22;;
9722;SDS011;4900;49.306;8.500;2022-08-20T08:44:41;3.05;;;1.80;;
9722;SDS011;4900;49.306;8.500;2022-08-20T08:47:45;1.80;;;1.70;;
9722;SDS011;4900;49.306;8.500;2022-08-20T08:50:48;2.15;;;1.95;;
9722;SDS011;4900;49.306;8.500;2022-08-20T08:53:54;2.15;;;1.95;;
9722;SDS011;4900;49.306;8.500;2022-08-20T08:56:59;1.75;;;1.65;;
9722;SDS011;4900;49.306;8.500;2022-08-20T09:00:12;2.20;;;1.90;;
9722;SDS011;4900;49.306;8.500;2022-08-20T09:03:28;1.90;;;1.80;;
9722;SDS011;4900;49.306;8.500;2022-08-20T09:06:34;1.95;;;1.70;;
9722;SDS011;4900;49.306;8.500;2022-08-20T09:09:38;2.55;;;2.05;;
9722;SDS011;4900;49.306;8.500;2022-08-20T09:12:45;1.92;;;1.65;;
9722;SDS011;4900;49.306;8.500;2022-08-20T09:15:47;1.70;;;1.60;;
9722;SDS011;4900;49.306;8.500;2022-08-20T09:18:50;2.38;;;1.90;;
9722;SDS011;4900;49.306;8.500;2022-08-20T09:21:54;2.60;;;1.90;;
9722;SDS011;4900;49.306;8.500;2022-08-20T09:24:57;1.70;;;1.60;;
9722;SDS011;4900;49.306;8.500;2022-08-20T09:28:02;2.55;;;1.60;;
9722;SDS011;4900;49.306;8.500;2022-08-20T09:31:05;2.55;;;1.60;;
9722;SDS011;4900;49.306;8.500;2022-08-20T09:34:09;1.95;;;1.50;;
9722;SDS011;4900;49.306;8.500;2022-08-20T09:37:12;1.50;;;1.40;;
9722;SDS011;4900;49.306;8.500;2022-08-20T09:40:16;1.70;;;1.60;;
9722;SDS011;4900;49.306;8.500;2022-08-20T09:43:19;1.70;;;1.60;;
9722;SDS011;4900;49.306;8.500;2022-08-20T09:46:22;1.98;;;1.80;;
9722;SDS011;4900;49.306;8.500;2022-08-20T09:49:25;1.77;;;1.67;;
9722;SDS011;4900;49.306;8.500;2022-08-20T09:52:30;2.30;;;1.73;;
9722;SDS011;4900;49.306;8.500;2022-08-20T09:55:37;1.55;;;1.30;;
9722;SDS011;4900;49.306;8.500;2022-08-20T10:01:54;1.50;;;1.40;;
9722;SDS011;4900;49.306;8.500;2022-08-20T10:04:57;1.50;;;1.40;;
9722;SDS011;4900;49.306;8.500;2022-08-20T10:08:03;1.40;;;1.30;;
9722;SDS011;4900;49.306;8.500;2022-08-20T10:11:07;1.40;;;1.30;;
9722;SDS011;4900;49.306;8.500;2022-08-20T10:14:12;1.42;;;1.33;;
9722;SDS011;4900;49.306;8.500;2022-08-20T10:17:15;1.40;;;1.30;;
9722;SDS011;4900;49.306;8.500;2022-08-20T10:20:18;1.50;;;1.40;;
9722;SDS011;4900;49.306;8.500;2022-08-20T10:23:21;3.03;;;1.40;;
9722;SDS011;4900;49.306;8.500;2022-08-20T10:26:24;1.50;;;1.27;;
9722;SDS011;4900;49.306;8.500;2022-08-20T10:29:28;1.40;;;1.30;;
9722;SDS011;4900;49.306;8.500;2022-08-20T10:32:32;1.38;;;1.10;;
9722;SDS011;4900;49.306;8.500;2022-08-20T10:35:35;2.10;;;1.40;;
9722;SDS011;4900;49.306;8.500;2022-08-20T10:38:39;1.20;;;1.10;;
9722;SDS011;4900;49.306;8.500;2022-08-20T10:41:42;1.20;;;1.10;;
9722;SDS011;4900;49.306;8.500;2022-08-20T10:44:46;1.27;;;1.17;;
9722;SDS011;4900;49.306;8.500;2022-08-20T10:47:49;1.27;;;1.17;;
9722;SDS011;4900;49.306;8.500;2022-08-20T10:50:52;1.17;;;1.08;;
9722;SDS011;4900;49.306;8.500;2022-08-20T10:53:56;1.40;;;1.30;;
9722;SDS011;4900;49.306;8.500;2022-08-20T10:57:00;1.23;;;1.13;;
9722;SDS011;4900;49.306;8.500;2022-08-20T11:00:04;1.30;;;1.20;;
9722;SDS011;4900;49.306;8.500;2022-08-20T11:03:10;1.58;;;1.10;;
9722;SDS011;4900;49.306;8.500;2022-08-20T11:06:13;1.30;;;1.10;;
9722;SDS011;4900;49.306;8.500;2022-08-20T11:09:16;1.40;;;1.20;;
9722;SDS011;4900;49.306;8.500;2022-08-20T11:12:19;1.30;;;1.10;;
9722;SDS011;4900;49.306;8.500;2022-08-20T11:15:23;1.30;;;1.20;;
9722;SDS011;4900;49.306;8.500;2022-08-20T11:18:26;1.27;;;1.17;;
9722;SDS011;4900;49.306;8.500;2022-08-20T11:21:30;2.38;;;1.20;;
9722;SDS011;4900;49.306;8.500;2022-08-20T11:24:32;1.77;;;1.00;;
9722;SDS011;4900;49.306;8.500;2022-08-20T11:27:37;1.60;;;1.00;;
9722;SDS011;4900;49.306;8.500;2022-08-20T11:30:42;1.00;;;1.00;;
9722;SDS011;4900;49.306;8.500;2022-08-20T11:33:47;1.20;;;1.10;;
9722;SDS011;4900;49.306;8.500;2022-08-20T11:36:51;1.15;;;1.05;;
9722;SDS011;4900;49.306;8.500;2022-08-20T11:39:54;1.98;;;0.90;;
9722;SDS011;4900;49.306;8.500;2022-08-20T11:42:57;0.90;;;0.90;;
9722;SDS011;4900;49.306;8.500;2022-08-20T11:46:01;0.90;;;0.90;;
9722;SDS011;4900;49.306;8.500;2022-08-20T11:49:04;1.27;;;0.98;;
9722;SDS011;4900;49.306;8.500;2022-08-20T11:52:07;1.00;;;1.00;;
9722;SDS011;4900;49.306;8.500;2022-08-20T11:55:11;0.90;;;0.90;;
9722;SDS011;4900;49.306;8.500;2022-08-20T11:58:15;1.20;;;1.10;;
9722;SDS011;4900;49.306;8.500;2022-08-20T12:01:19;2.72;;;1.05;;
9722;SDS011;4900;49.306;8.500;2022-08-20T12:04:23;1.33;;;0.90;;
9722;SDS011;4900;49.306;8.500;2022-08-20T12:07:26;1.33;;;1.00;;
9722;SDS011;4900;49.306;8.500;2022-08-20T12:10:29;1.00;;;0.90;;
9722;SDS011;4900;49.306;8.500;2022-08-20T12:13:34;1.20;;;0.90;;
9722;SDS011;4900;49.306;8.500;2022-08-20T12:16:38;1.10;;;1.00;;
9722;SDS011;4900;49.306;8.500;2022-08-20T12:19:41;1.08;;;1.00;;
9722;SDS011;4900;49.306;8.500;2022-08-20T12:22:45;2.40;;;1.20;;
9722;SDS011;4900;49.306;8.500;2022-08-20T12:25:48;1.75;;;1.20;;
9722;SDS011;4900;49.306;8.500;2022-08-20T12:28:52;1.17;;;0.90;;
9722;SDS011;4900;49.306;8.500;2022-08-20T12:31:57;1.60;;;1.30;;
9722;SDS011;4900;49.306;8.500;2022-08-20T12:35:00;1.10;;;1.00;;
9722;SDS011;4900;49.306;8.500;2022-08-20T12:38:05;1.25;;;1.02;;
9722;SDS011;4900;49.306;8.500;2022-08-20T12:41:08;1.00;;;0.98;;
9722;SDS011;4900;49.306;8.500;2022-08-20T12:44:12;1.10;;;1.00;;
9722;SDS011;4900;49.306;8.500;2022-08-20T12:50:19;1.20;;;1.10;;
9722;SDS011;4900;49.306;8.500;2022-08-20T12:53:24;1.20;;;1.02;;
9722;SDS011;4900;49.306;8.500;2022-08-20T12:56:27;2.10;;;1.02;;
9722;SDS011;4900;49.306;8.500;2022-08-20T12:59:30;1.20;;;1.10;;
9722;SDS011;4900;49.306;8.500;2022-08-20T13:02:33;1.00;;;1.00;;
9722;SDS011;4900;49.306;8.500;2022-08-20T13:05:37;1.15;;;1.02;;
9722;SDS011;4900;49.306;8.500;2022-08-20T13:08:41;2.22;;;1.30;;
9722;SDS011;4900;49.306;8.500;2022-08-20T13:11:44;1.40;;;1.30;;
9722;SDS011;4900;49.306;8.500;2022-08-20T13:14:47;1.60;;;1.35;;
9722;SDS011;4900;49.306;8.500;2022-08-20T13:17:51;1.77;;;1.20;;
9722;SDS011;4900;49.306;8.500;2022-08-20T13:20:56;1.30;;;1.20;;
9722;SDS011;4900;49.306;8.500;2022-08-20T13:23:59;1.38;;;1.27;;
9722;SDS011;4900;49.306;8.500;2022-08-20T13:27:06;1.30;;;1.10;;
9722;SDS011;4900;49.306;8.500;2022-08-20T13:30:13;1.20;;;1.10;;
9722;SDS011;4900;49.306;8.500;2022-08-20T13:33:18;1.50;;;1.30;;
9722;SDS011;4900;49.306;8.500;2022-08-20T13:36:21;1.35;;;1.25;;
9722;SDS011;4900;49.306;8.500;2022-08-20T13:39:24;1.88;;;1.40;;
9722;SDS011;4900;49.306;8.500;2022-08-20T13:42:28;2.42;;;1.50;;
9722;SDS011;4900;49.306;8.500;2022-08-20T13:45:31;2.50;;;1.80;;
9722;SDS011;4900;49.306;8.500;2022-08-20T13:48:35;1.38;;;1.27;;
9722;SDS011;4900;49.306;8.500;2022-08-20T13:51:38;1.83;;;1.65;;
9722;SDS011;4900;49.306;8.500;2022-08-20T13:54:41;2.72;;;1.70;;
9722;SDS011;4900;49.306;8.500;2022-08-20T13:57:45;2.88;;;1.80;;
9722;SDS011;4900;49.306;8.500;2022-08-20T14:00:48;2.00;;;1.80;;
9722;SDS011;4900;49.306;8.500;2022-08-20T14:03:52;2.67;;;2.10;;
9722;SDS011;4900;49.306;8.500;2022-08-20T14:06:55;2.42;;;2.22;;
9722;SDS011;4900;49.306;8.500;2022-08-20T14:10:00;2.30;;;2.10;;
9722;SDS011;4900;49.306;8.500;2022-08-20T14:13:06;2.35;;;2.10;;
9722;SDS011;4900;49.306;8.500;2022-08-20T14:16:10;2.22;;;1.88;;
9722;SDS011;4900;49.306;8.500;2022-08-20T14:19:13;2.47;;;2.00;;
9722;SDS011;4900;49.306;8.500;2022-08-20T14:22:17;2.20;;;2.00;;
9722;SDS011;4900;49.306;8.500;2022-08-20T14:25:21;2.40;;;2.20;;
9722;SDS011;4900;49.306;8.500;2022-08-20T14:28:25;2.30;;;2.10;;
9722;SDS011;4900;49.306;8.500;2022-08-20T14:31:28;2.33;;;2.13;;
9722;SDS011;4900;49.306;8.500;2022-08-20T14:34:31;2.58;;;1.98;;
9722;SDS011;4900;49.306;8.500;2022-08-20T14:37:39;2.83;;;1.92;;
9722;SDS011;4900;49.306;8.500;2022-08-20T14:40:44;3.67;;;2.10;;
9722;SDS011;4900;49.306;8.500;2022-08-20T14:43:48;2.45;;;2.22;;
9722;SDS011;4900;49.306;8.500;2022-08-20T14:46:51;2.22;;;1.95;;
9722;SDS011;4900;49.306;8.500;2022-08-20T14:49:55;4.00;;;2.25;;
9722;SDS011;4900;49.306;8.500;2022-08-20T14:53:03;3.35;;;2.80;;
9722;SDS011;4900;49.306;8.500;2022-08-20T14:56:07;3.28;;;2.40;;
9722;SDS011;4900;49.306;8.500;2022-08-20T14:59:10;2.53;;;2.33;;
9722;SDS011;4900;49.306;8.500;2022-08-20T15:02:13;2.72;;;2.25;;
9722;SDS011;4900;49.306;8.500;2022-08-20T15:05:18;3.03;;;2.40;;
9722;SDS011;4900;49.306;8.500;2022-08-20T15:08:21;2.63;;;2.40;;
9722;SDS011;4900;49.306;8.500;2022-08-20T15:11:25;2.50;;;2.30;;
9722;SDS011;4900;49.306;8.500;2022-08-20T15:14:28;2.40;;;2.20;;
9722;SDS011;4900;49.306;8.500;2022-08-20T15:17:32;2.40;;;2.20;;
9722;SDS011;4900;49.306;8.500;2022-08-20T15:20:36;2.35;;;2.15;;
9722;SDS011;4900;49.306;8.500;2022-08-20T15:23:39;2.40;;;2.20;;
9722;SDS011;4900;49.306;8.500;2022-08-20T15:26:42;2.50;;;1.95;;
9722;SDS011;4900;49.306;8.500;2022-08-20T15:29:45;2.10;;;1.80;;
9722;SDS011;4900;49.306;8.500;2022-08-20T15:32:48;2.20;;;2.00;;
9722;SDS011;4900;49.306;8.500;2022-08-20T15:35:52;2.10;;;1.90;;
9722;SDS011;4900;49.306;8.500;2022-08-20T15:38:55;3.35;;;2.05;;
9722;SDS011;4900;49.306;8.500;2022-08-20T15:41:58;2.30;;;1.73;;
9722;SDS011;4900;49.306;8.500;2022-08-20T15:45:02;2.63;;;1.80;;
9722;SDS011;4900;49.306;8.500;2022-08-20T15:48:14;2.13;;;1.70;;
9722;SDS011;4900;49.306;8.500;2022-08-20T15:54:46;2.20;;;2.00;;
9722;SDS011;4900;49.306;8.500;2022-08-20T16:01:37;1.85;;;1.60;;
9722;SDS011;4900;49.306;8.500;2022-08-20T16:05:06;2.22;;;1.73;;
9722;SDS011;4900;49.306;8.500;2022-08-20T16:15:11;1.85;;;1.67;;
9722;SDS011;4900;49.306;8.500;2022-08-20T16:18:23;3.22;;;2.10;;
9722;SDS011;4900;49.306;8.500;2022-08-20T16:21:30;2.70;;;2.50;;
9722;SDS011;4900;49.306;8.500;2022-08-20T16:24:36;2.83;;;1.80;;
9722;SDS011;4900;49.306;8.500;2022-08-20T16:31:06;2.65;;;1.77;;
9722;SDS011;4900;49.306;8.500;2022-08-20T16:34:27;2.17;;;1.60;;
9722;SDS011;4900;49.306;8.500;2022-08-20T16:40:53;2.72;;;1.95;;
9722;SDS011;4900;49.306;8.500;2022-08-20T16:44:00;2.00;;;1.60;;
9722;SDS011;4900;49.306;8.500;2022-08-20T16:50:22;2.30;;;1.70;;
9722;SDS011;4900;49.306;8.500;2022-08-20T16:53:28;3.13;;;1.75;;
9722;SDS011;4900;49.306;8.500;2022-08-20T16:56:42;2.80;;;1.60;;
9722;SDS011;4900;49.306;8.500;2022-08-20T16:59:55;2.05;;;1.70;;
9722;SDS011;4900;49.306;8.500;2022-08-20T17:06:23;1.92;;;1.60;;
9722;SDS011;4900;49.306;8.500;2022-08-20T17:09:38;2.10;;;1.73;;
9722;SDS011;4900;49.306;8.500;2022-08-20T17:12:45;1.50;;;1.40;;
9722;SDS011;4900;49.306;8.500;2022-08-20T17:15:59;2.13;;;1.70;;
9722;SDS011;4900;49.306;8.500;2022-08-20T17:19:27;2.30;;;1.60;;
9722;SDS011;4900;49.306;8.500;2022-08-20T17:22:38;2.50;;;1.70;;
9722;SDS011;4900;49.306;8.500;2022-08-20T17:25:54;3.83;;;1.70;;
9722;SDS011;4900;49.306;8.500;2022-08-20T17:29:02;2.72;;;1.70;;
9722;SDS011;4900;49.306;8.500;2022-08-20T17:32:16;2.33;;;1.92;;
9722;SDS011;4900;49.306;8.500;2022-08-20T17:35:34;2.97;;;1.70;;
9722;SDS011;4900;49.306;8.500;2022-08-20T17:38:47;3.75;;;1.90;;
9722;SDS011;4900;49.306;8.500;2022-08-20T17:42:09;3.35;;;1.77;;
9722;SDS011;4900;49.306;8.500;2022-08-20T17:45:59;2.65;;;1.65;;
9722;SDS011;4900;49.306;8.500;2022-08-20T17:48:45;1.83;;;1.60;;
9722;SDS011;4900;49.306;8.500;2022-08-20T17:51:51;3.15;;;1.80;;
9722;SDS011;4900;49.306;8.500;2022-08-20T17:54:56;4.45;;;2.20;;
9722;SDS011;4900;49.306;8.500;2022-08-20T17:58:00;5.68;;;1.90;;
9722;SDS011;4900;49.306;8.500;2022-08-20T18:01:14;2.33;;;1.80;;
9722;SDS011;4900;49.306;8.500;2022-08-20T18:04:19;3.45;;;1.83;;
9722;SDS011;4900;49.306;8.500;2022-08-20T18:07:30;2.30;;;1.85;;
9722;SDS011;4900;49.306;8.500;2022-08-20T18:10:58;2.47;;;1.80;;
9722;SDS011;4900;49.306;8.500;2022-08-20T18:20:57;2.38;;;2.05;;
9722;SDS011;4900;49.306;8.500;2022-08-20T18:27:51;3.85;;;2.00;;
9722;SDS011;4900;49.306;8.500;2022-08-20T18:30:58;3.30;;;2.20;;
9722;SDS011;4900;49.306;8.500;2022-08-20T18:34:18;2.97;;;2.10;;
9722;SDS011;4900;49.306;8.500;2022-08-20T18:37:38;2.15;;;1.83;;
9722;SDS011;4900;49.306;8.500;2022-08-20T18:40:42;2.53;;;1.88;;
9722;SDS011;4900;49.306;8.500;2022-08-20T18:43:45;3.17;;;1.73;;
9722;SDS011;4900;49.306;8.500;2022-08-20T18:50:01;3.28;;;1.85;;
9722;SDS011;4900;49.306;8.500;2022-08-20T18:56:29;1.80;;;1.70;;
9722;SDS011;4900;49.306;8.500;2022-08-20T18:59:40;4.38;;;1.80;;
9722;SDS011;4900;49.306;8.500;2022-08-20T19:02:56;2.40;;;1.90;;
9722;SDS011;4900;49.306;8.500;2022-08-20T19:06:06;2.53;;;2.00;;
9722;SDS011;4900;49.306;8.500;2022-08-20T19:16:34;3.70;;;1.90;;
9722;SDS011;4900;49.306;8.500;2022-08-20T19:19:38;4.18;;;2.13;;
9722;SDS011;4900;49.306;8.500;2022-08-20T19:22:42;3.70;;;2.13;;
9722;SDS011;4900;49.306;8.500;2022-08-20T19:25:49;3.08;;;2.08;;
9722;SDS011;4900;49.306;8.500;2022-08-20T19:29:05;3.15;;;2.13;;
9722;SDS011;4900;49.306;8.500;2022-08-20T19:32:15;3.40;;;1.85;;
9722;SDS011;4900;49.306;8.500;2022-08-20T19:35:20;2.83;;;1.80;;
9722;SDS011;4900;49.306;8.500;2022-08-20T19:38:25;2.95;;;2.05;;
9722;SDS011;4900;49.306;8.500;2022-08-20T19:41:47;4.53;;;2.13;;
9722;SDS011;4900;49.306;8.500;2022-08-20T19:45:41;3.75;;;2.20;;
9722;SDS011;4900;49.306;8.500;2022-08-20T19:48:49;3.40;;;2.00;;
9722;SDS011;4900;49.306;8.500;2022-08-20T19:55:29;2.97;;;2.30;;
9722;SDS011;4900;49.306;8.500;2022-08-20T19:58:33;4.82;;;2.00;;
9722;SDS011;4900;49.306;8.500;2022-08-20T20:01:37;2.70;;;2.20;;
9722;SDS011;4900;49.306;8.500;2022-08-20T20:04:41;5.18;;;2.20;;
9722;SDS011;4900;49.306;8.500;2022-08-20T20:07:46;2.85;;;2.15;;
9722;SDS011;4900;49.306;8.500;2022-08-20T20:10:53;3.15;;;2.08;;
9722;SDS011;4900;49.306;8.500;2022-08-20T20:13:59;4.05;;;2.72;;
9722;SDS011;4900;49.306;8.500;2022-08-20T20:17:08;4.78;;;2.47;;